This is the latest recevied weather packets stored in our database for station/object AC8JV. If no packets are shown the sender has not sent any weather packets the latest 10 day(s).
| Time | Temp. | Humidity | Pressure | Rain* | Wind** | Luminosity | Snow |
|---|---|---|---|---|---|---|---|
| 1777813204 | 8.89° C | 62% | 1014 hPa | 0 mm | - | - | - |
| 1777812603 | 8.33° C | 62% | 1014.1 hPa | 0 mm | - | - | - |
| 1777811999 | 7.78° C | 64% | 1014.1 hPa | 0 mm | - | - | - |
| 1777811411 | 7.22° C | 66% | 1014.2 hPa | 0 mm | - | - | - |
| 1777810797 | 5.56° C | 73% | 1014.2 hPa | 0 mm | - | - | - |
| 1777810202 | 5.56° C | 73% | 1014.1 hPa | 0 mm | - | - | - |
| 1777809623 | 5° C | 73% | 1014.1 hPa | 0 mm | - | - | - |
| 1777809003 | 5° C | 72% | 1014.1 hPa | 0 mm | - | - | - |
| 1777808412 | 4.44° C | 72% | 1014.1 hPa | 0 mm | - | - | - |
| 1777807803 | 4.44° C | 73% | 1014.2 hPa | 0 mm | - | - | - |
| 1777807199 | 3.89° C | 74% | 1014 hPa | 0 mm | - | - | - |
| 1777806607 | 3.89° C | 74% | 1013.9 hPa | 0 mm | - | - | - |
| 1777806010 | 3.89° C | 74% | 1013.9 hPa | 0 mm | - | - | - |
| 1777805400 | 3.89° C | 73% | 1013.9 hPa | 0 mm | - | - | - |
| 1777804799 | 3.89° C | 73% | 1013.9 hPa | 0 mm | - | - | - |
| 1777804208 | 3.89° C | 72% | 1013.9 hPa | 0 mm | - | - | - |
| 1777803602 | 3.89° C | 71% | 1013.9 hPa | 0 mm | - | - | - |
| 1777803035 | 4.44° C | 71% | 1013.9 hPa | 0 mm | - | - | - |
| 1777802399 | 4.44° C | 70% | 1014 hPa | 0 mm | - | - | - |
| 1777801804 | 4.44° C | 70% | 1014 hPa | 0 mm | - | - | - |
| 1777801197 | 5° C | 69% | 1014.2 hPa | 0 mm | - | - | - |
| 1777800600 | 5° C | 68% | 1014.2 hPa | 0 mm | - | - | - |
| 1777800010 | 5.56° C | 68% | 1014.3 hPa | 0 mm | - | - | - |
| 1777799399 | 5.56° C | 66% | 1014.3 hPa | 0 mm | - | - | - |
| 1777798839 | 5.56° C | 66% | 1014.2 hPa | 0 mm | - | - | - |
* Rain latest hour (hover to see other rain measurements)
** Current wind speed in m/s (hover to see current wind gust speed)